Great Falls, Virginia
Current Conditions -  °F | °C
As of 6:52 PM on Thursday 27 Nov 2014 (Local Time) from KIAD Reporting Station
Scattered Clouds Scattered Clouds  
Wind Chill: 29°   Ceiling: Unl
Heat Index: 34°   Visibility: 10mi
Dew Point: 28°   Wind: 6mph
Humidity: 79%   Direction: 290°WNW
Pressure: 30.13"   Gusts: NA
Location:  39°N, 77.29°W
Report Text: KIAD 272352Z 29005KT 10SM SCT075 01/M02 A3013 RMK AO2 SLP206 60000 T00111022 10067 20011 51021 $
Loading
Personal Weather Stations






























Interactive Weather Map New forecast layout! Learn more

10-Day Weather Forecast

Advertisements
Track Severe Weather on mobile